Aqua Jewel — SZLD — position and weather

sailwx.info

Track history (hours):
 
Tides and Currents Weather Stations Pressure Air Temp Water Temp Dewpoint Dewpoint Depression Visibility Wind Speed Wind Dir Waves Ship Positions

Aqua Jewel

Last reported at 2017-Nov-20 00:30 UTC. Time now 2017-Nov-20 17:19 UTC.
Position N 37°26' E 024°56'.

Length 108 m; draft 3.6 m.

Type: Passenger vessel. MMSI: 239981000.

Date/timePositionNaut miles runAvg speedWind from/ knotsBaromVisibWave heightAir tempDewpointWater temp
2017-Nov-20 00:30N 37°26' E 024°56'0 0.0
2017-Nov-20 00:00N 37°26' E 024°56'0 0.0
2017-Nov-19 23:30N 37°26' E 024°56'0 0.0
2017-Nov-19 23:00N 37°26' E 024°56'0 0.0
2017-Nov-19 22:30N 37°26' E 024°56'0 0.0
2017-Nov-19 22:00N 37°26' E 024°56'0 0.0
2017-Nov-19 21:29N 37°26' E 024°56'0 0.0
2017-Nov-19 21:00N 37°26' E 024°56'0 0.0
2017-Nov-19 20:30N 37°26' E 024°56'0 0.0
2017-Nov-19 20:00N 37°26' E 024°56'0 0.0
2017-Nov-19 19:30N 37°26' E 024°56'0 0.0
2017-Nov-19 19:00N 37°26' E 024°56'0 0.0
2017-Nov-19 18:30N 37°26' E 024°56'0 0.0
2017-Nov-19 18:00N 37°26' E 024°56'0 0.0
2017-Nov-19 17:30N 37°26' E 024°56'0 0.0
2017-Nov-19 17:00N 37°26' E 024°56'0 0.0
2017-Nov-19 16:30N 37°26' E 024°56'511.0
2017-Nov-19 16:00N 37°21' E 024°59'713.6
2017-Nov-19 15:30N 37°15' E 025°02'713.9
2017-Nov-19 15:01N 37°09' E 025°06'4 8.0
2017-Nov-19 14:30N 37°05' E 025°09'510.2
2017-Nov-19 14:00N 37°09' E 025°12'612.7
2017-Nov-19 13:31N 37°08' E 025°20'2 4.7
2017-Nov-19 13:01N 37°06' E 025°20'7 0.3
2017-Nov-18 08:58N 36°59' E 025°15'715.2
2017-Nov-18 08:31N 37°05' E 025°20'2 3.8
2017-Nov-18 08:00N 37°06' E 025°22'713.6
2017-Nov-18 07:30N 37°10' E 025°14'713.7
2017-Nov-18 07:00N 37°05' E 025°08'2 3.1
2017-Nov-18 06:31N 37°07' E 025°07'714.9
2017-Nov-18 06:01N 37°14' E 025°04'714.8
2017-Nov-18 05:31N 37°21' E 025°00'612.7
2017-Nov-18 05:00N 37°26' E 024°56'0 0.0
2017-Nov-18 04:30N 37°26' E 024°56'0 0.0
2017-Nov-18 04:00N 37°26' E 024°56'0 0.0
2017-Nov-18 03:30N 37°26' E 024°56'0 0.0
2017-Nov-18 03:00N 37°26' E 024°56'0 0.0
2017-Nov-18 02:29N 37°26' E 024°56'0 0.0
2017-Nov-18 02:00N 37°26' E 024°56'0 0.0
2017-Nov-18 01:30N 37°26' E 024°56'0 0.0
2017-Nov-18 00:59N 37°26' E 024°56'0 0.0
2017-Nov-18 00:30N 37°26' E 024°56'0 0.0
2017-Nov-18 00:00N 37°26' E 024°56'0 0.0
2017-Nov-17 23:30N 37°26' E 024°56'0 0.0
2017-Nov-17 23:01N 37°26' E 024°56'0 0.0
2017-Nov-17 22:30N 37°26' E 024°56'0 0.0
2017-Nov-17 22:00N 37°26' E 024°56'0 0.0
2017-Nov-17 21:30N 37°26' E 024°56'0 0.0
2017-Nov-17 21:00N 37°26' E 024°56'0 0.0
2017-Nov-17 20:30N 37°26' E 024°56'0 0.0
2017-Nov-17 20:00N 37°26' E 024°56'0 0.0
2017-Nov-17 19:30N 37°26' E 024°56'0 0.0
2017-Nov-17 19:00N 37°26' E 024°56'0 0.0
2017-Nov-17 18:30N 37°26' E 024°56'2 3.5
2017-Nov-17 18:00N 37°28' E 024°58'815.1
2017-Nov-17 17:30N 37°35' E 024°54'815.5
2017-Nov-17 17:00N 37°41' E 024°49'3 2.0
2017-Nov-17 15:17N 37°45' E 024°50'514.7
2017-Nov-17 14:59N 37°41' E 024°54'714.9
2017-Nov-17 14:30N 37°37' E 025°01'714.3
2017-Nov-17 14:00N 37°32' E 025°08'3 6.9
2017-Nov-17 13:30N 37°29' E 025°09'713.7
2017-Nov-17 13:01N 37°22' E 025°09'713.4
2017-Nov-17 12:30N 37°15' E 025°08'713.1
2017-Nov-17 12:01N 37°09' E 025°08'4 5.6
2017-Nov-17 11:22N 37°05' E 025°08'412.4
2017-Nov-17 11:00N 37°10' E 025°08'714.6
2017-Nov-17 10:30N 37°17' E 025°08'714.7
2017-Nov-17 10:00N 37°24' E 025°09'714.7
2017-Nov-17 09:30N 37°32' E 025°09'3 6.9
2017-Nov-17 09:01N 37°33' E 025°05'815.0
2017-Nov-17 08:31N 37°39' E 024°59'714.8
2017-Nov-17 08:00N 37°44' E 024°52'3 2.0
2017-Nov-17 06:17N 37°42' E 024°48'415.0
2017-Nov-17 06:00N 37°39' E 024°51'815.2
2017-Nov-17 05:30N 37°32' E 024°55'611.3
2017-Nov-17 05:01N 37°26' E 024°57'0 0.0
2017-Nov-17 04:30N 37°26' E 024°56'0 0.0
2017-Nov-17 04:00N 37°26' E 024°56'0 0.0
2017-Nov-17 03:31N 37°26' E 024°56'0 0.0
2017-Nov-17 03:00N 37°26' E 024°56'0 0.0
2017-Nov-17 02:31N 37°26' E 024°56'0 0.0
2017-Nov-17 02:00N 37°26' E 024°56'0 0.0
2017-Nov-17 01:30N 37°26' E 024°56'0 0.0
2017-Nov-17 00:39N 37°26' E 024°56'0 0.0
2017-Nov-17 00:30N 37°26' E 024°56'0 0.0
2017-Nov-17 00:00N 37°26' E 024°56'0 0.0
2017-Nov-16 23:31N 37°26' E 024°56'1 2.6
2017-Nov-16 23:01N 37°27' E 024°58'714.4
2017-Nov-16 22:31N 37°34' E 024°54'814.9
2017-Nov-16 22:00N 37°40' E 024°49'4 2.4
2017-Nov-16 20:14N 37°45' E 024°50'415.5
2017-Nov-16 19:59N 37°42' E 024°54'715.7
2017-Nov-16 19:30N 37°37' E 025°00'815.1
2017-Nov-16 19:00N 37°32' E 025°08'5 9.2
2017-Nov-16 18:31N 37°28' E 025°09'815.0
2017-Nov-16 18:01N 37°20' E 025°08'714.8
2017-Nov-16 17:30N 37°13' E 025°08'715.0
2017-Nov-16 17:00N 37°05' E 025°08'3 6.6
2017-Nov-16 16:30N 37°09' E 025°08'815.7
2017-Nov-16 16:00N 37°16' E 025°08'815.5
2017-Nov-16 15:30N 37°24' E 025°09'815.4
2017-Nov-16 15:00N 37°32' E 025°09'5 9.1
2017-Nov-16 14:31N 37°34' E 025°04'815.4
2017-Nov-16 14:00N 37°40' E 024°57'8 3.6
2017-Nov-16 11:54N 37°42' E 024°48'615.4
2017-Nov-16 11:31N 37°37' E 024°52'815.4
2017-Nov-16 11:01N 37°30' E 024°57'4 7.3
2017-Nov-16 10:30N 37°26' E 024°57'611.2
2017-Nov-16 10:00N 37°31' E 024°53'714.6
2017-Nov-16 09:30N 37°31' E 024°44'31 7.9
2017-Nov-16 05:37N 37°38' E 024°07'1 0.2
2017-Nov-15 21:24N 37°39' E 024°05'10 6.5
2017-Nov-15 19:53N 37°33' E 024°15'23 9.0
2017-Nov-15 17:23N 37°31' E 024°44'615.7
2017-Nov-15 17:01N 37°31' E 024°51'612.9
2017-Nov-15 16:31N 37°27' E 024°57'3 5.9
2017-Nov-15 16:01N 37°25' E 024°59'815.1
2017-Nov-15 15:31N 37°18' E 025°02'815.0
2017-Nov-15 15:00N 37°10' E 025°05'6 9.6
2017-Nov-15 14:23N 37°05' E 025°09'4 8.5
2017-Nov-15 13:57N 37°09' E 025°11'613.9
2017-Nov-15 13:30N 37°10' E 025°18'4 8.8
2017-Nov-15 13:00N 37°06' E 025°22'611.9
2017-Nov-15 12:30N 37°02' E 025°17'3 0.1
2017-Nov-14 09:00N 36°59' E 025°16'714.4
2017-Nov-14 08:30N 37°06' E 025°20'2 3.4
2017-Nov-14 08:01N 37°07' E 025°21'713.0
2017-Nov-14 07:30N 37°10' E 025°13'612.4
2017-Nov-14 07:00N 37°05' E 025°08'2 5.0
2017-Nov-14 06:31N 37°07' E 025°06'714.2
2017-Nov-14 06:00N 37°14' E 025°04'714.5
2017-Nov-14 05:30N 37°21' E 025°00'612.4
2017-Nov-14 05:00N 37°26' E 024°56'0 0.0
2017-Nov-14 04:30N 37°26' E 024°56'0 0.0
2017-Nov-14 04:00N 37°26' E 024°56'0 0.0
2017-Nov-14 03:30N 37°26' E 024°56'0 0.0
2017-Nov-14 03:00N 37°26' E 024°56'0 0.0
2017-Nov-14 02:30N 37°26' E 024°56'0 0.0
2017-Nov-14 02:00N 37°26' E 024°56'0 0.0
2017-Nov-14 01:30N 37°26' E 024°56'0 0.0
2017-Nov-14 00:43N 37°26' E 024°56'0 0.0
2017-Nov-14 00:15N 37°26' E 024°56'0 0.0
2017-Nov-14 00:00N 37°26' E 024°56'0 0.0
2017-Nov-13 23:30N 37°26' E 024°56'0 0.0
2017-Nov-13 22:53N 37°26' E 024°56'0 0.0
2017-Nov-13 22:07N 37°26' E 024°56'0 0.0
2017-Nov-13 21:56N 37°26' E 024°56'0 0.0
2017-Nov-13 02:00N 37°26' E 024°56'0 0.0
2017-Nov-13 01:30N 37°26' E 024°56'0 0.0
2017-Nov-13 01:00N 37°26' E 024°56'0 0.0
2017-Nov-13 00:29N 37°26' E 024°56'0 0.0
2017-Nov-12 23:59N 37°26' E 024°56'0 0.0
2017-Nov-12 23:28N 37°26' E 024°56'0 0.0
2017-Nov-12 23:00N 37°26' E 024°56'0 0.0
2017-Nov-12 22:30N 37°26' E 024°56'0 0.0
2017-Nov-12 22:00N 37°26' E 024°56'0 0.0
2017-Nov-12 21:30N 37°26' E 024°56'0 0.0
2017-Nov-12 21:00N 37°26' E 024°56'0 0.0
2017-Nov-12 20:30N 37°26' E 024°56'0 0.0
2017-Nov-12 20:00N 37°26' E 024°56'0 0.0
2017-Nov-12 19:30N 37°26' E 024°56'0 0.0
2017-Nov-12 18:58N 37°26' E 024°56'0 0.0
2017-Nov-12 18:30N 37°26' E 024°56'0 0.0
2017-Nov-12 18:00N 37°26' E 024°56'0 0.0
2017-Nov-12 17:30N 37°26' E 024°56'0 0.0
2017-Nov-12 17:00N 37°26' E 024°56'0 0.0
2017-Nov-12 16:31N 37°26' E 024°56'2 4.9
2017-Nov-12 16:01N 37°25' E 024°59'815.6
2017-Nov-12 15:31N 37°17' E 025°02'815.1
2017-Nov-12 15:01N 37°10' E 025°05'6 9.0
2017-Nov-12 14:23N 37°05' E 025°09'4 9.3
2017-Nov-12 13:59N 37°08' E 025°11'613.3
2017-Nov-12 13:30N 37°10' E 025°19'4 8.7
2017-Nov-12 13:00N 37°06' E 025°22'510.3
2017-Nov-12 12:30N 37°03' E 025°18'4 0.1
2017-Nov-11 09:00N 36°59' E 025°16'714.3
2017-Nov-11 08:31N 37°05' E 025°20'2 3.7
2017-Nov-11 08:00N 37°07' E 025°21'612.9
2017-Nov-11 07:30N 37°10' E 025°13'612.0
2017-Nov-11 07:00N 37°05' E 025°08'3 6.6
2017-Nov-11 06:30N 37°08' E 025°06'714.0
2017-Nov-11 06:01N 37°15' E 025°03'714.1
2017-Nov-11 05:31N 37°21' E 024°60'611.8
2017-Nov-11 05:00N 37°26' E 024°56'0 0.0
2017-Nov-11 04:30N 37°26' E 024°56'0 0.0
2017-Nov-11 04:00N 37°26' E 024°56'0 0.0
2017-Nov-11 03:30N 37°26' E 024°56'0 0.0
2017-Nov-11 03:00N 37°26' E 024°56'0 0.0
2017-Nov-11 02:30N 37°26' E 024°56'0 0.0
2017-Nov-11 02:00N 37°26' E 024°56'0 0.0
2017-Nov-11 01:30N 37°26' E 024°56'0 0.0
2017-Nov-11 01:00N 37°26' E 024°56'0 0.0
2017-Nov-11 00:30N 37°26' E 024°56'0 0.0
2017-Nov-11 00:00N 37°26' E 024°56'0 0.0
2017-Nov-10 23:30N 37°26' E 024°56'0 0.0
2017-Nov-10 23:00N 37°26' E 024°56'0 0.0
2017-Nov-10 22:30N 37°26' E 024°56'0 0.0
2017-Nov-10 22:00N 37°26' E 024°56'0 0.0
2017-Nov-10 21:28N 37°26' E 024°56'0 0.0
2017-Nov-10 20:59N 37°26' E 024°56'0 0.0
2017-Nov-10 20:30N 37°26' E 024°56'0 0.0
2017-Nov-10 20:00N 37°26' E 024°56'0 0.0
2017-Nov-10 19:30N 37°26' E 024°56'0 0.0
2017-Nov-10 18:58N 37°26' E 024°56'0 0.0
2017-Nov-10 18:29N 37°26' E 024°56'3 7.1
2017-Nov-10 18:00N 37°30' E 024°57'714.3
2017-Nov-10 17:30N 37°36' E 024°53'9 4.0
2017-Nov-10 15:19N 37°45' E 024°50'614.4
2017-Nov-10 14:53N 37°40' E 024°56'514.4
2017-Nov-10 14:31N 37°36' E 025°01'714.1
2017-Nov-10 14:01N 37°32' E 025°08'3 6.3
2017-Nov-10 13:31N 37°29' E 025°08'713.9
2017-Nov-10 13:00N 37°22' E 025°08'713.7
2017-Nov-10 12:30N 37°15' E 025°07'713.9
2017-Nov-10 12:01N 37°08' E 025°07'3 6.7
2017-Nov-10 11:30N 37°05' E 025°09'612.3
2017-Nov-10 11:00N 37°11' E 025°08'714.6
2017-Nov-10 10:30N 37°19' E 025°08'714.5
2017-Nov-10 10:00N 37°26' E 025°09'713.0
2017-Nov-10 09:30N 37°32' E 025°09'611.1
2017-Nov-10 09:00N 37°35' E 025°03'1214.5
2017-Nov-10 08:10N 37°44' E 024°52'3 1.9
2017-Nov-10 06:20N 37°42' E 024°48'514.4
2017-Nov-10 06:01N 37°38' E 024°51'714.5
2017-Nov-10 05:30N 37°32' E 024°56'510.3
2017-Nov-10 05:00N 37°26' E 024°56'0 0.0
2017-Nov-10 04:30N 37°26' E 024°56'0 0.0
2017-Nov-10 04:00N 37°26' E 024°56'0 0.0
2017-Nov-10 02:02N 37°26' E 024°56'0 0.0
2017-Nov-10 02:00N 37°26' E 024°56'0 0.0
2017-Nov-10 00:52N 37°26' E 024°56'0 0.0
2017-Nov-10 00:31N 37°26' E 024°56'  
Track history (hours):
 
Tides and Currents Weather Stations Pressure Air Temp Water Temp Dewpoint Dewpoint Depression Visibility Wind Speed Wind Dir Waves Ship Positions

Aqua Jewel

Last reported at 2017-Nov-20 00:30 UTC. Time now 2017-Nov-20 17:19 UTC.
Position N 37°26' E 024°56'.

Length 108 m; draft 3.6 m.

Type: Passenger vessel. MMSI: 239981000.

Date/timePositionNaut miles runAvg speedWind from/ knotsBaromVisibWave heightAir tempDewpointWater temp
2017-Nov-20 00:30N 37°26' E 024°56'0 0.0
2017-Nov-20 00:00N 37°26' E 024°56'0 0.0
2017-Nov-19 23:30N 37°26' E 024°56'0 0.0
2017-Nov-19 23:00N 37°26' E 024°56'0 0.0
2017-Nov-19 22:30N 37°26' E 024°56'0 0.0
2017-Nov-19 22:00N 37°26' E 024°56'0 0.0
2017-Nov-19 21:29N 37°26' E 024°56'0 0.0
2017-Nov-19 21:00N 37°26' E 024°56'0 0.0
2017-Nov-19 20:30N 37°26' E 024°56'0 0.0
2017-Nov-19 20:00N 37°26' E 024°56'0 0.0
2017-Nov-19 19:30N 37°26' E 024°56'0 0.0
2017-Nov-19 19:00N 37°26' E 024°56'0 0.0
2017-Nov-19 18:30N 37°26' E 024°56'0 0.0
2017-Nov-19 18:00N 37°26' E 024°56'0 0.0
2017-Nov-19 17:30N 37°26' E 024°56'0 0.0
2017-Nov-19 17:00N 37°26' E 024°56'0 0.0
2017-Nov-19 16:30N 37°26' E 024°56'511.0
2017-Nov-19 16:00N 37°21' E 024°59'713.6
2017-Nov-19 15:30N 37°15' E 025°02'713.9
2017-Nov-19 15:01N 37°09' E 025°06'4 8.0
2017-Nov-19 14:30N 37°05' E 025°09'510.2
2017-Nov-19 14:00N 37°09' E 025°12'612.7
2017-Nov-19 13:31N 37°08' E 025°20'2 4.7
2017-Nov-19 13:01N 37°06' E 025°20'7 0.3
2017-Nov-18 08:58N 36°59' E 025°15'715.2
2017-Nov-18 08:31N 37°05' E 025°20'2 3.8
2017-Nov-18 08:00N 37°06' E 025°22'713.6
2017-Nov-18 07:30N 37°10' E 025°14'713.7
2017-Nov-18 07:00N 37°05' E 025°08'2 3.1
2017-Nov-18 06:31N 37°07' E 025°07'714.9
2017-Nov-18 06:01N 37°14' E 025°04'714.8
2017-Nov-18 05:31N 37°21' E 025°00'612.7
2017-Nov-18 05:00N 37°26' E 024°56'0 0.0
2017-Nov-18 04:30N 37°26' E 024°56'0 0.0
2017-Nov-18 04:00N 37°26' E 024°56'0 0.0
2017-Nov-18 03:30N 37°26' E 024°56'0 0.0
2017-Nov-18 03:00N 37°26' E 024°56'0 0.0
2017-Nov-18 02:29N 37°26' E 024°56'0 0.0
2017-Nov-18 02:00N 37°26' E 024°56'0 0.0
2017-Nov-18 01:30N 37°26' E 024°56'0 0.0
2017-Nov-18 00:59N 37°26' E 024°56'0 0.0
2017-Nov-18 00:30N 37°26' E 024°56'0 0.0
2017-Nov-18 00:00N 37°26' E 024°56'0 0.0
2017-Nov-17 23:30N 37°26' E 024°56'0 0.0
2017-Nov-17 23:01N 37°26' E 024°56'0 0.0
2017-Nov-17 22:30N 37°26' E 024°56'0 0.0
2017-Nov-17 22:00N 37°26' E 024°56'0 0.0
2017-Nov-17 21:30N 37°26' E 024°56'0 0.0
2017-Nov-17 21:00N 37°26' E 024°56'0 0.0
2017-Nov-17 20:30N 37°26' E 024°56'0 0.0
2017-Nov-17 20:00N 37°26' E 024°56'0 0.0
2017-Nov-17 19:30N 37°26' E 024°56'0 0.0
2017-Nov-17 19:00N 37°26' E 024°56'0 0.0
2017-Nov-17 18:30N 37°26' E 024°56'2 3.5
2017-Nov-17 18:00N 37°28' E 024°58'815.1
2017-Nov-17 17:30N 37°35' E 024°54'815.5
2017-Nov-17 17:00N 37°41' E 024°49'3 2.0
2017-Nov-17 15:17N 37°45' E 024°50'514.7
2017-Nov-17 14:59N 37°41' E 024°54'714.9
2017-Nov-17 14:30N 37°37' E 025°01'714.3
2017-Nov-17 14:00N 37°32' E 025°08'3 6.9
2017-Nov-17 13:30N 37°29' E 025°09'713.7
2017-Nov-17 13:01N 37°22' E 025°09'713.4
2017-Nov-17 12:30N 37°15' E 025°08'713.1
2017-Nov-17 12:01N 37°09' E 025°08'4 5.6
2017-Nov-17 11:22N 37°05' E 025°08'412.4
2017-Nov-17 11:00N 37°10' E 025°08'714.6
2017-Nov-17 10:30N 37°17' E 025°08'714.7
2017-Nov-17 10:00N 37°24' E 025°09'714.7
2017-Nov-17 09:30N 37°32' E 025°09'3 6.9
2017-Nov-17 09:01N 37°33' E 025°05'815.0
2017-Nov-17 08:31N 37°39' E 024°59'714.8
2017-Nov-17 08:00N 37°44' E 024°52'3 2.0
2017-Nov-17 06:17N 37°42' E 024°48'415.0
2017-Nov-17 06:00N 37°39' E 024°51'815.2
2017-Nov-17 05:30N 37°32' E 024°55'611.3
2017-Nov-17 05:01N 37°26' E 024°57'0 0.0
2017-Nov-17 04:30N 37°26' E 024°56'0 0.0
2017-Nov-17 04:00N 37°26' E 024°56'0 0.0
2017-Nov-17 03:31N 37°26' E 024°56'0 0.0
2017-Nov-17 03:00N 37°26' E 024°56'0 0.0
2017-Nov-17 02:31N 37°26' E 024°56'0 0.0
2017-Nov-17 02:00N 37°26' E 024°56'0 0.0
2017-Nov-17 01:30N 37°26' E 024°56'0 0.0
2017-Nov-17 00:39N 37°26' E 024°56'0 0.0
2017-Nov-17 00:30N 37°26' E 024°56'0 0.0
2017-Nov-17 00:00N 37°26' E 024°56'0 0.0
2017-Nov-16 23:31N 37°26' E 024°56'1 2.6
2017-Nov-16 23:01N 37°27' E 024°58'714.4
2017-Nov-16 22:31N 37°34' E 024°54'814.9
2017-Nov-16 22:00N 37°40' E 024°49'4 2.4
2017-Nov-16 20:14N 37°45' E 024°50'415.5
2017-Nov-16 19:59N 37°42' E 024°54'715.7
2017-Nov-16 19:30N 37°37' E 025°00'815.1
2017-Nov-16 19:00N 37°32' E 025°08'5 9.2
2017-Nov-16 18:31N 37°28' E 025°09'815.0
2017-Nov-16 18:01N 37°20' E 025°08'714.8
2017-Nov-16 17:30N 37°13' E 025°08'715.0
2017-Nov-16 17:00N 37°05' E 025°08'3 6.6
2017-Nov-16 16:30N 37°09' E 025°08'815.7
2017-Nov-16 16:00N 37°16' E 025°08'815.5
2017-Nov-16 15:30N 37°24' E 025°09'815.4
2017-Nov-16 15:00N 37°32' E 025°09'5 9.1
2017-Nov-16 14:31N 37°34' E 025°04'815.4
2017-Nov-16 14:00N 37°40' E 024°57'8 3.6
2017-Nov-16 11:54N 37°42' E 024°48'615.4
2017-Nov-16 11:31N 37°37' E 024°52'815.4
2017-Nov-16 11:01N 37°30' E 024°57'4 7.3
2017-Nov-16 10:30N 37°26' E 024°57'611.2
2017-Nov-16 10:00N 37°31' E 024°53'714.6
2017-Nov-16 09:30N 37°31' E 024°44'31 7.9
2017-Nov-16 05:37N 37°38' E 024°07'1 0.2
2017-Nov-15 21:24N 37°39' E 024°05'10 6.5
2017-Nov-15 19:53N 37°33' E 024°15'23 9.0
2017-Nov-15 17:23N 37°31' E 024°44'615.7
2017-Nov-15 17:01N 37°31' E 024°51'612.9
2017-Nov-15 16:31N 37°27' E 024°57'3 5.9
2017-Nov-15 16:01N 37°25' E 024°59'815.1
2017-Nov-15 15:31N 37°18' E 025°02'815.0
2017-Nov-15 15:00N 37°10' E 025°05'6 9.6
2017-Nov-15 14:23N 37°05' E 025°09'4 8.5
2017-Nov-15 13:57N 37°09' E 025°11'613.9
2017-Nov-15 13:30N 37°10' E 025°18'4 8.8
2017-Nov-15 13:00N 37°06' E 025°22'611.9
2017-Nov-15 12:30N 37°02' E 025°17'3 0.1
2017-Nov-14 09:00N 36°59' E 025°16'714.4
2017-Nov-14 08:30N 37°06' E 025°20'2 3.4
2017-Nov-14 08:01N 37°07' E 025°21'713.0
2017-Nov-14 07:30N 37°10' E 025°13'612.4
2017-Nov-14 07:00N 37°05' E 025°08'2 5.0
2017-Nov-14 06:31N 37°07' E 025°06'714.2
2017-Nov-14 06:00N 37°14' E 025°04'714.5
2017-Nov-14 05:30N 37°21' E 025°00'612.4
2017-Nov-14 05:00N 37°26' E 024°56'0 0.0
2017-Nov-14 04:30N 37°26' E 024°56'0 0.0
2017-Nov-14 04:00N 37°26' E 024°56'0 0.0
2017-Nov-14 03:30N 37°26' E 024°56'0 0.0
2017-Nov-14 03:00N 37°26' E 024°56'0 0.0
2017-Nov-14 02:30N 37°26' E 024°56'0 0.0
2017-Nov-14 02:00N 37°26' E 024°56'0 0.0
2017-Nov-14 01:30N 37°26' E 024°56'0 0.0
2017-Nov-14 00:43N 37°26' E 024°56'0 0.0
2017-Nov-14 00:15N 37°26' E 024°56'0 0.0
2017-Nov-14 00:00N 37°26' E 024°56'0 0.0
2017-Nov-13 23:30N 37°26' E 024°56'0 0.0
2017-Nov-13 22:53N 37°26' E 024°56'0 0.0
2017-Nov-13 22:07N 37°26' E 024°56'0 0.0
2017-Nov-13 21:56N 37°26' E 024°56'0 0.0
2017-Nov-13 02:00N 37°26' E 024°56'0 0.0
2017-Nov-13 01:30N 37°26' E 024°56'0 0.0
2017-Nov-13 01:00N 37°26' E 024°56'0 0.0
2017-Nov-13 00:29N 37°26' E 024°56'0 0.0
2017-Nov-12 23:59N 37°26' E 024°56'0 0.0
2017-Nov-12 23:28N 37°26' E 024°56'0 0.0
2017-Nov-12 23:00N 37°26' E 024°56'0 0.0
2017-Nov-12 22:30N 37°26' E 024°56'0 0.0
2017-Nov-12 22:00N 37°26' E 024°56'0 0.0
2017-Nov-12 21:30N 37°26' E 024°56'0 0.0
2017-Nov-12 21:00N 37°26' E 024°56'0 0.0
2017-Nov-12 20:30N 37°26' E 024°56'0 0.0
2017-Nov-12 20:00N 37°26' E 024°56'0 0.0
2017-Nov-12 19:30N 37°26' E 024°56'0 0.0
2017-Nov-12 18:58N 37°26' E 024°56'0 0.0
2017-Nov-12 18:30N 37°26' E 024°56'0 0.0
2017-Nov-12 18:00N 37°26' E 024°56'0 0.0
2017-Nov-12 17:30N 37°26' E 024°56'0 0.0
2017-Nov-12 17:00N 37°26' E 024°56'0 0.0
2017-Nov-12 16:31N 37°26' E 024°56'2 4.9
2017-Nov-12 16:01N 37°25' E 024°59'815.6
2017-Nov-12 15:31N 37°17' E 025°02'815.1
2017-Nov-12 15:01N 37°10' E 025°05'6 9.0
2017-Nov-12 14:23N 37°05' E 025°09'4 9.3
2017-Nov-12 13:59N 37°08' E 025°11'613.3
2017-Nov-12 13:30N 37°10' E 025°19'4 8.7
2017-Nov-12 13:00N 37°06' E 025°22'510.3
2017-Nov-12 12:30N 37°03' E 025°18'4 0.1
2017-Nov-11 09:00N 36°59' E 025°16'714.3
2017-Nov-11 08:31N 37°05' E 025°20'2 3.7
2017-Nov-11 08:00N 37°07' E 025°21'612.9
2017-Nov-11 07:30N 37°10' E 025°13'612.0
2017-Nov-11 07:00N 37°05' E 025°08'3 6.6
2017-Nov-11 06:30N 37°08' E 025°06'714.0
2017-Nov-11 06:01N 37°15' E 025°03'714.1
2017-Nov-11 05:31N 37°21' E 024°60'611.8
2017-Nov-11 05:00N 37°26' E 024°56'0 0.0
2017-Nov-11 04:30N 37°26' E 024°56'0 0.0
2017-Nov-11 04:00N 37°26' E 024°56'0 0.0
2017-Nov-11 03:30N 37°26' E 024°56'0 0.0
2017-Nov-11 03:00N 37°26' E 024°56'0 0.0
2017-Nov-11 02:30N 37°26' E 024°56'0 0.0
2017-Nov-11 02:00N 37°26' E 024°56'0 0.0
2017-Nov-11 01:30N 37°26' E 024°56'0 0.0
2017-Nov-11 01:00N 37°26' E 024°56'0 0.0
2017-Nov-11 00:30N 37°26' E 024°56'0 0.0
2017-Nov-11 00:00N 37°26' E 024°56'0 0.0
2017-Nov-10 23:30N 37°26' E 024°56'0 0.0
2017-Nov-10 23:00N 37°26' E 024°56'0 0.0
2017-Nov-10 22:30N 37°26' E 024°56'0 0.0
2017-Nov-10 22:00N 37°26' E 024°56'0 0.0
2017-Nov-10 21:28N 37°26' E 024°56'0 0.0
2017-Nov-10 20:59N 37°26' E 024°56'0 0.0
2017-Nov-10 20:30N 37°26' E 024°56'0 0.0
2017-Nov-10 20:00N 37°26' E 024°56'0 0.0
2017-Nov-10 19:30N 37°26' E 024°56'0 0.0
2017-Nov-10 18:58N 37°26' E 024°56'0 0.0
2017-Nov-10 18:29N 37°26' E 024°56'3 7.1
2017-Nov-10 18:00N 37°30' E 024°57'714.3
2017-Nov-10 17:30N 37°36' E 024°53'9 4.0
2017-Nov-10 15:19N 37°45' E 024°50'614.4
2017-Nov-10 14:53N 37°40' E 024°56'514.4
2017-Nov-10 14:31N 37°36' E 025°01'714.1
2017-Nov-10 14:01N 37°32' E 025°08'3 6.3
2017-Nov-10 13:31N 37°29' E 025°08'713.9
2017-Nov-10 13:00N 37°22' E 025°08'713.7
2017-Nov-10 12:30N 37°15' E 025°07'713.9
2017-Nov-10 12:01N 37°08' E 025°07'3 6.7
2017-Nov-10 11:30N 37°05' E 025°09'612.3
2017-Nov-10 11:00N 37°11' E 025°08'714.6
2017-Nov-10 10:30N 37°19' E 025°08'714.5
2017-Nov-10 10:00N 37°26' E 025°09'713.0
2017-Nov-10 09:30N 37°32' E 025°09'611.1
2017-Nov-10 09:00N 37°35' E 025°03'1214.5
2017-Nov-10 08:10N 37°44' E 024°52'3 1.9
2017-Nov-10 06:20N 37°42' E 024°48'514.4
2017-Nov-10 06:01N 37°38' E 024°51'714.5
2017-Nov-10 05:30N 37°32' E 024°56'510.3
2017-Nov-10 05:00N 37°26' E 024°56'0 0.0
2017-Nov-10 04:30N 37°26' E 024°56'0 0.0
2017-Nov-10 04:00N 37°26' E 024°56'0 0.0
2017-Nov-10 02:02N 37°26' E 024°56'0 0.0
2017-Nov-10 02:00N 37°26' E 024°56'0 0.0
2017-Nov-10 00:52N 37°26' E 024°56'0 0.0
2017-Nov-10 00:31N 37°26' E 024°56'  

Dump ship's entire track history